x

Smith Island, Wa (sisw1) Weather Station

5:00 - Thu 23rd Feb 2017 All times are PST. -8 hours from GMT.

  • Wind
    13mph
  • Ar Temp 38°f
  • Sea Pressure 1023.8mb
  • Smith Island, Wa
  • Smith Island, Wa

More Historic Weather Station data

Upgrade to MSW Pro to gain access to the past 30 days of data for over 8000 Wavebouys and Weather Stations around the globe.

Join Pro

Comparision Forecast

View Surf forecast
   
Qui 02/23 5:00 13
mph
1023.8mb 38f
4:00 7 8 mph 1023.6mb 39f
3:00 5 8 mph 1023.5mb 39f
2:00 13 18 mph 1023.4mb 40f
Qua 02/22 2:00 13 21 mph 1021.1mb 42f
1:00 14 22 mph 1020.8mb 43f
12:00 17 26 mph 1020mb 43f
Ter 02/21 11:00 24 29 mph 1019.5mb 44f
10:00 30 34 mph 1018.7mb 44f
9:00 33 37 mph 1018.1mb 44f
8:00 30 34 mph 1017.5mb 44f
7:00 32 34 mph 1017.1mb 45f
6:00 30 34 mph 1016.3mb 45f
5:00 26 33 mph 1015.6mb 46f
4:00 33 36 mph 1014.8mb 46f
3:00 22 25 mph 1014.5mb 46f
2:00 5 8 mph 1014.5mb 47f
1:00  -  2 mph 1014mb 46f
12:00 3 5 mph 1013.6mb 44f
11:00 11 13 mph 1012.9mb 44f
10:00 17 20 mph 1011.7mb 43f
9:00 14 15 mph 1010.4mb 43f
8:00 20 23 mph 1009.1mb 43f
7:00 15 17 mph 1008.2mb 43f
6:00 15 16 mph 1007.5mb 44f
5:00 7 9 mph 1007.1mb 44f
4:00 9 10 mph 1006.9mb 44f
3:00 6
mph
1007mb 43f
2:00 3 5 mph 1006.9mb 42f
1:00 3
mph
1007mb 42f
12:00 5 6 mph 1007mb 43f
Seg 02/20 11:00 6
mph
1006.7mb 43f
10:00 7 8 mph 1007mb 43f
9:00 3
mph
1006.5mb 44f
8:00 7
mph
1006.3mb 44f
7:00 6 7 mph 1006.4mb 44f
6:00 6 7 mph 1006mb 44f
5:00 3
mph
1005.6mb 45f
4:00 3 5 mph 1004.9mb 45f
3:00 9 13 mph 1003.7mb 45f
2:00 10 13 mph 1002.4mb 46f
1:00 10 14 mph 1001.4mb 46f
12:00 13 14 mph 1000.5mb 45f
11:00 6 8 mph 1000mb 46f
10:00 5 6 mph 999.8mb 45f
9:00 5 6 mph 999.7mb 44f
8:00 3 5 mph 999.6mb 43f
7:00 6
mph
999.7mb 43f
6:00 9
mph
999.9mb 43f
5:00 9 10 mph 1000.3mb 43f
4:00 11 13 mph 1000.9mb 43f
3:00 14 16 mph 1001.5mb 43f
2:00 14 15 mph 1001.8mb 43f
1:00 14 16 mph 1002mb 43f
12:00 21 22 mph 1001.6mb 43f
Dom 02/19 11:00 23 26 mph 1001.3mb 44f
10:00 25 29 mph 1000.7mb 44f
9:00 30 34 mph 999.9mb 44f
8:00 34 38 mph 998.9mb 44f
7:00 33 37 mph 998.3mb 45f
6:00 28 33 mph 997.7mb 45f
5:00 25 30 mph 997.4mb 45f
4:00 30 33 mph 997mb 45f
3:00 29 32 mph 996.7mb 45f